sensor_id;sensor_type;location;lat;lon;timestamp;P1;durP1;ratioP1;P2;durP2;ratioP2
21166;SDS011;10741;52.272;9.580;2023-03-14T00:01:52;3.23;;;1.40;;
21166;SDS011;10741;52.272;9.580;2023-03-14T00:04:18;3.27;;;1.27;;
21166;SDS011;10741;52.272;9.580;2023-03-14T00:06:44;3.93;;;1.70;;
21166;SDS011;10741;52.272;9.580;2023-03-14T00:09:12;2.60;;;1.37;;
21166;SDS011;10741;52.272;9.580;2023-03-14T00:11:38;5.57;;;1.53;;
21166;SDS011;10741;52.272;9.580;2023-03-14T00:14:04;4.60;;;1.30;;
21166;SDS011;10741;52.272;9.580;2023-03-14T00:16:29;2.90;;;1.30;;
21166;SDS011;10741;52.272;9.580;2023-03-14T00:18:55;4.00;;;1.30;;
21166;SDS011;10741;52.272;9.580;2023-03-14T00:21:23;4.07;;;1.40;;
21166;SDS011;10741;52.272;9.580;2023-03-14T00:23:48;4.50;;;1.80;;
21166;SDS011;10741;52.272;9.580;2023-03-14T00:26:19;4.83;;;1.30;;
21166;SDS011;10741;52.272;9.580;2023-03-14T00:28:46;2.27;;;1.30;;
21166;SDS011;10741;52.272;9.580;2023-03-14T00:31:15;3.30;;;1.30;;
21166;SDS011;10741;52.272;9.580;2023-03-14T00:33:42;3.20;;;1.53;;
21166;SDS011;10741;52.272;9.580;2023-03-14T00:36:15;2.57;;;1.40;;
21166;SDS011;10741;52.272;9.580;2023-03-14T00:38:43;1.83;;;1.33;;
21166;SDS011;10741;52.272;9.580;2023-03-14T00:41:11;3.30;;;1.20;;
21166;SDS011;10741;52.272;9.580;2023-03-14T00:43:40;6.77;;;1.40;;
21166;SDS011;10741;52.272;9.580;2023-03-14T00:46:06;3.17;;;1.20;;
21166;SDS011;10741;52.272;9.580;2023-03-14T00:48:32;3.47;;;1.37;;
21166;SDS011;10741;52.272;9.580;2023-03-14T00:50:58;5.37;;;1.37;;
21166;SDS011;10741;52.272;9.580;2023-03-14T00:53:23;3.80;;;1.30;;
21166;SDS011;10741;52.272;9.580;2023-03-14T00:55:49;1.83;;;1.20;;
21166;SDS011;10741;52.272;9.580;2023-03-14T00:58:16;2.80;;;1.30;;
21166;SDS011;10741;52.272;9.580;2023-03-14T01:00:43;3.87;;;1.60;;
21166;SDS011;10741;52.272;9.580;2023-03-14T01:03:09;3.07;;;1.30;;
21166;SDS011;10741;52.272;9.580;2023-03-14T01:05:36;3.30;;;1.30;;
21166;SDS011;10741;52.272;9.580;2023-03-14T01:08:02;3.23;;;1.20;;
21166;SDS011;10741;52.272;9.580;2023-03-14T01:10:29;2.77;;;1.40;;
21166;SDS011;10741;52.272;9.580;2023-03-14T01:12:55;4.13;;;1.60;;
21166;SDS011;10741;52.272;9.580;2023-03-14T01:15:21;3.73;;;1.50;;
21166;SDS011;10741;52.272;9.580;2023-03-14T01:17:47;3.53;;;1.23;;
21166;SDS011;10741;52.272;9.580;2023-03-14T01:20:13;3.67;;;1.60;;
21166;SDS011;10741;52.272;9.580;2023-03-14T01:22:40;4.33;;;1.30;;
21166;SDS011;10741;52.272;9.580;2023-03-14T01:25:07;4.63;;;1.57;;
21166;SDS011;10741;52.272;9.580;2023-03-14T01:27:34;4.67;;;1.57;;
21166;SDS011;10741;52.272;9.580;2023-03-14T01:30:00;3.00;;;1.77;;
21166;SDS011;10741;52.272;9.580;2023-03-14T01:32:27;4.77;;;1.50;;
21166;SDS011;10741;52.272;9.580;2023-03-14T01:34:53;4.30;;;1.40;;
21166;SDS011;10741;52.272;9.580;2023-03-14T01:37:18;3.53;;;1.57;;
21166;SDS011;10741;52.272;9.580;2023-03-14T01:39:46;4.17;;;1.60;;
21166;SDS011;10741;52.272;9.580;2023-03-14T01:42:12;5.70;;;1.53;;
21166;SDS011;10741;52.272;9.580;2023-03-14T01:47:15;2.87;;;1.00;;
21166;SDS011;10741;52.272;9.580;2023-03-14T01:49:41;3.70;;;1.57;;
21166;SDS011;10741;52.272;9.580;2023-03-14T01:52:22;5.37;;;1.40;;
21166;SDS011;10741;52.272;9.580;2023-03-14T01:54:53;5.33;;;1.50;;
21166;SDS011;10741;52.272;9.580;2023-03-14T01:57:41;3.20;;;1.50;;
21166;SDS011;10741;52.272;9.580;2023-03-14T02:00:17;2.83;;;1.43;;
21166;SDS011;10741;52.272;9.580;2023-03-14T02:02:46;4.43;;;1.37;;
21166;SDS011;10741;52.272;9.580;2023-03-14T02:05:14;3.60;;;1.50;;
21166;SDS011;10741;52.272;9.580;2023-03-14T02:07:51;3.67;;;1.27;;
21166;SDS011;10741;52.272;9.580;2023-03-14T02:10:19;2.60;;;1.20;;
21166;SDS011;10741;52.272;9.580;2023-03-14T02:12:48;4.97;;;1.47;;
21166;SDS011;10741;52.272;9.580;2023-03-14T02:15:15;3.43;;;1.13;;
21166;SDS011;10741;52.272;9.580;2023-03-14T02:17:41;3.90;;;1.30;;
21166;SDS011;10741;52.272;9.580;2023-03-14T02:22:37;4.67;;;1.30;;
21166;SDS011;10741;52.272;9.580;2023-03-14T02:27:40;2.57;;;1.50;;
21166;SDS011;10741;52.272;9.580;2023-03-14T02:30:11;3.60;;;1.47;;
21166;SDS011;10741;52.272;9.580;2023-03-14T02:32:43;2.07;;;1.27;;
21166;SDS011;10741;52.272;9.580;2023-03-14T02:35:16;3.47;;;1.20;;
21166;SDS011;10741;52.272;9.580;2023-03-14T02:37:47;3.57;;;1.40;;
21166;SDS011;10741;52.272;9.580;2023-03-14T02:40:17;3.70;;;1.37;;
21166;SDS011;10741;52.272;9.580;2023-03-14T02:42:44;4.60;;;1.40;;
21166;SDS011;10741;52.272;9.580;2023-03-14T02:47:39;4.27;;;1.40;;
21166;SDS011;10741;52.272;9.580;2023-03-14T02:50:12;7.10;;;1.70;;
21166;SDS011;10741;52.272;9.580;2023-03-14T02:52:42;3.93;;;1.50;;
21166;SDS011;10741;52.272;9.580;2023-03-14T02:55:08;3.93;;;1.30;;
21166;SDS011;10741;52.272;9.580;2023-03-14T02:57:34;3.37;;;1.10;;
21166;SDS011;10741;52.272;9.580;2023-03-14T03:00:00;2.53;;;1.20;;
21166;SDS011;10741;52.272;9.580;2023-03-14T03:02:30;4.20;;;1.50;;
21166;SDS011;10741;52.272;9.580;2023-03-14T03:04:56;2.47;;;0.90;;
21166;SDS011;10741;52.272;9.580;2023-03-14T03:07:22;7.17;;;2.23;;
21166;SDS011;10741;52.272;9.580;2023-03-14T03:09:47;3.83;;;1.50;;
21166;SDS011;10741;52.272;9.580;2023-03-14T03:12:13;3.13;;;1.30;;
21166;SDS011;10741;52.272;9.580;2023-03-14T03:14:39;6.77;;;1.47;;
21166;SDS011;10741;52.272;9.580;2023-03-14T03:17:05;3.87;;;1.40;;
21166;SDS011;10741;52.272;9.580;2023-03-14T03:19:32;4.00;;;1.40;;
21166;SDS011;10741;52.272;9.580;2023-03-14T03:21:58;2.80;;;1.20;;
21166;SDS011;10741;52.272;9.580;2023-03-14T03:24:24;5.37;;;1.20;;
21166;SDS011;10741;52.272;9.580;2023-03-14T03:26:51;4.20;;;1.30;;
21166;SDS011;10741;52.272;9.580;2023-03-14T03:29:16;3.73;;;1.30;;
21166;SDS011;10741;52.272;9.580;2023-03-14T03:31:42;4.33;;;1.33;;
21166;SDS011;10741;52.272;9.580;2023-03-14T03:34:10;2.60;;;1.13;;
21166;SDS011;10741;52.272;9.580;2023-03-14T03:36:37;5.07;;;1.47;;
21166;SDS011;10741;52.272;9.580;2023-03-14T03:39:03;3.87;;;1.57;;
21166;SDS011;10741;52.272;9.580;2023-03-14T03:41:29;5.13;;;1.50;;
21166;SDS011;10741;52.272;9.580;2023-03-14T03:43:55;3.83;;;1.23;;
21166;SDS011;10741;52.272;9.580;2023-03-14T03:46:21;3.60;;;1.40;;
21166;SDS011;10741;52.272;9.580;2023-03-14T03:48:47;4.23;;;1.33;;
21166;SDS011;10741;52.272;9.580;2023-03-14T03:51:13;4.23;;;1.60;;
21166;SDS011;10741;52.272;9.580;2023-03-14T03:53:41;3.73;;;1.40;;
21166;SDS011;10741;52.272;9.580;2023-03-14T03:56:07;1.27;;;0.90;;
21166;SDS011;10741;52.272;9.580;2023-03-14T03:58:34;1.97;;;1.10;;
21166;SDS011;10741;52.272;9.580;2023-03-14T04:00:59;3.47;;;1.80;;
21166;SDS011;10741;52.272;9.580;2023-03-14T04:03:25;1.57;;;1.30;;
21166;SDS011;10741;52.272;9.580;2023-03-14T04:06:00;4.10;;;1.30;;
21166;SDS011;10741;52.272;9.580;2023-03-14T04:08:30;3.97;;;1.80;;
21166;SDS011;10741;52.272;9.580;2023-03-14T04:10:57;2.73;;;1.40;;
21166;SDS011;10741;52.272;9.580;2023-03-14T04:13:23;4.70;;;1.20;;
21166;SDS011;10741;52.272;9.580;2023-03-14T04:15:49;1.00;;;0.80;;
21166;SDS011;10741;52.272;9.580;2023-03-14T04:18:15;3.40;;;1.40;;
21166;SDS011;10741;52.272;9.580;2023-03-14T04:20:41;3.93;;;1.83;;
21166;SDS011;10741;52.272;9.580;2023-03-14T04:23:07;5.67;;;2.20;;
21166;SDS011;10741;52.272;9.580;2023-03-14T04:25:33;2.53;;;1.40;;
21166;SDS011;10741;52.272;9.580;2023-03-14T04:27:58;2.93;;;1.00;;
21166;SDS011;10741;52.272;9.580;2023-03-14T04:30:24;1.73;;;1.40;;
21166;SDS011;10741;52.272;9.580;2023-03-14T04:32:50;2.20;;;1.03;;
21166;SDS011;10741;52.272;9.580;2023-03-14T04:35:15;1.67;;;1.17;;
21166;SDS011;10741;52.272;9.580;2023-03-14T04:37:41;3.43;;;2.00;;
21166;SDS011;10741;52.272;9.580;2023-03-14T04:40:08;1.00;;;0.60;;
21166;SDS011;10741;52.272;9.580;2023-03-14T04:42:35;2.13;;;0.90;;
21166;SDS011;10741;52.272;9.580;2023-03-14T04:45:01;1.07;;;0.67;;
21166;SDS011;10741;52.272;9.580;2023-03-14T04:47:27;2.73;;;0.60;;
21166;SDS011;10741;52.272;9.580;2023-03-14T04:49:53;1.77;;;0.70;;
21166;SDS011;10741;52.272;9.580;2023-03-14T04:52:19;3.10;;;0.70;;
21166;SDS011;10741;52.272;9.580;2023-03-14T04:54:45;1.07;;;0.60;;
21166;SDS011;10741;52.272;9.580;2023-03-14T04:57:10;1.87;;;0.70;;
21166;SDS011;10741;52.272;9.580;2023-03-14T04:59:36;3.30;;;0.90;;
21166;SDS011;10741;52.272;9.580;2023-03-14T05:02:02;2.67;;;0.70;;
21166;SDS011;10741;52.272;9.580;2023-03-14T05:04:28;1.43;;;0.60;;
21166;SDS011;10741;52.272;9.580;2023-03-14T05:06:54;6.80;;;0.97;;
21166;SDS011;10741;52.272;9.580;2023-03-14T05:09:20;2.40;;;0.80;;
21166;SDS011;10741;52.272;9.580;2023-03-14T05:11:45;4.10;;;0.87;;
21166;SDS011;10741;52.272;9.580;2023-03-14T05:14:11;2.67;;;1.20;;
21166;SDS011;10741;52.272;9.580;2023-03-14T05:16:37;2.00;;;1.00;;
21166;SDS011;10741;52.272;9.580;2023-03-14T05:19:02;6.07;;;1.13;;
21166;SDS011;10741;52.272;9.580;2023-03-14T05:21:28;3.70;;;1.70;;
21166;SDS011;10741;52.272;9.580;2023-03-14T05:23:54;4.53;;;1.33;;
21166;SDS011;10741;52.272;9.580;2023-03-14T05:26:20;3.93;;;1.40;;
21166;SDS011;10741;52.272;9.580;2023-03-14T05:28:45;7.00;;;1.53;;
21166;SDS011;10741;52.272;9.580;2023-03-14T05:31:11;4.23;;;1.63;;
21166;SDS011;10741;52.272;9.580;2023-03-14T05:33:37;4.20;;;1.40;;
21166;SDS011;10741;52.272;9.580;2023-03-14T05:36:03;5.37;;;1.40;;
21166;SDS011;10741;52.272;9.580;2023-03-14T05:38:29;6.93;;;1.63;;
21166;SDS011;10741;52.272;9.580;2023-03-14T05:40:54;6.00;;;1.30;;
21166;SDS011;10741;52.272;9.580;2023-03-14T05:43:20;7.07;;;1.97;;
21166;SDS011;10741;52.272;9.580;2023-03-14T05:45:46;5.27;;;1.60;;
21166;SDS011;10741;52.272;9.580;2023-03-14T05:48:11;5.17;;;1.60;;
21166;SDS011;10741;52.272;9.580;2023-03-14T05:50:37;6.30;;;1.67;;
21166;SDS011;10741;52.272;9.580;2023-03-14T05:53:03;7.80;;;1.80;;
21166;SDS011;10741;52.272;9.580;2023-03-14T05:55:29;6.30;;;1.67;;
21166;SDS011;10741;52.272;9.580;2023-03-14T05:57:55;4.70;;;1.53;;
21166;SDS011;10741;52.272;9.580;2023-03-14T06:00:20;8.03;;;1.80;;
21166;SDS011;10741;52.272;9.580;2023-03-14T06:02:47;4.90;;;1.20;;
21166;SDS011;10741;52.272;9.580;2023-03-14T06:05:13;5.33;;;1.50;;
21166;SDS011;10741;52.272;9.580;2023-03-14T06:07:38;5.80;;;1.30;;
21166;SDS011;10741;52.272;9.580;2023-03-14T06:10:04;4.00;;;1.27;;
21166;SDS011;10741;52.272;9.580;2023-03-14T06:12:30;4.97;;;1.90;;
21166;SDS011;10741;52.272;9.580;2023-03-14T06:14:56;6.30;;;1.40;;
21166;SDS011;10741;52.272;9.580;2023-03-14T06:17:22;3.87;;;1.33;;
21166;SDS011;10741;52.272;9.580;2023-03-14T06:19:48;3.57;;;1.53;;
21166;SDS011;10741;52.272;9.580;2023-03-14T06:22:13;5.93;;;1.60;;
21166;SDS011;10741;52.272;9.580;2023-03-14T06:24:39;5.90;;;1.50;;
21166;SDS011;10741;52.272;9.580;2023-03-14T06:27:05;5.23;;;1.30;;
21166;SDS011;10741;52.272;9.580;2023-03-14T06:29:30;6.27;;;1.27;;
21166;SDS011;10741;52.272;9.580;2023-03-14T06:31:56;3.33;;;1.20;;
21166;SDS011;10741;52.272;9.580;2023-03-14T06:34:22;6.43;;;1.53;;
21166;SDS011;10741;52.272;9.580;2023-03-14T06:36:48;3.00;;;1.00;;
21166;SDS011;10741;52.272;9.580;2023-03-14T06:39:14;2.67;;;1.00;;
21166;SDS011;10741;52.272;9.580;2023-03-14T06:41:39;1.37;;;0.90;;
21166;SDS011;10741;52.272;9.580;2023-03-14T06:44:05;4.73;;;0.90;;
21166;SDS011;10741;52.272;9.580;2023-03-14T06:46:31;2.77;;;1.10;;
21166;SDS011;10741;52.272;9.580;2023-03-14T06:48:56;1.80;;;0.83;;
21166;SDS011;10741;52.272;9.580;2023-03-14T06:51:22;2.20;;;1.10;;
21166;SDS011;10741;52.272;9.580;2023-03-14T06:53:48;3.07;;;0.80;;
21166;SDS011;10741;52.272;9.580;2023-03-14T06:56:14;2.10;;;0.70;;
21166;SDS011;10741;52.272;9.580;2023-03-14T06:58:39;2.40;;;0.80;;
21166;SDS011;10741;52.272;9.580;2023-03-14T07:01:05;2.13;;;0.70;;
21166;SDS011;10741;52.272;9.580;2023-03-14T07:03:40;1.93;;;0.73;;
21166;SDS011;10741;52.272;9.580;2023-03-14T07:06:05;0.70;;;0.70;;
21166;SDS011;10741;52.272;9.580;2023-03-14T07:08:31;2.00;;;0.60;;
21166;SDS011;10741;52.272;9.580;2023-03-14T07:10:57;4.93;;;0.83;;
21166;SDS011;10741;52.272;9.580;2023-03-14T07:13:23;1.33;;;0.50;;
21166;SDS011;10741;52.272;9.580;2023-03-14T07:15:48;1.40;;;0.70;;
21166;SDS011;10741;52.272;9.580;2023-03-14T07:18:14;2.80;;;0.60;;
21166;SDS011;10741;52.272;9.580;2023-03-14T07:20:40;0.93;;;0.60;;
21166;SDS011;10741;52.272;9.580;2023-03-14T07:23:05;1.40;;;0.80;;
21166;SDS011;10741;52.272;9.580;2023-03-14T07:25:31;1.17;;;0.50;;
21166;SDS011;10741;52.272;9.580;2023-03-14T07:27:57;1.40;;;0.90;;
21166;SDS011;10741;52.272;9.580;2023-03-14T07:30:23;1.97;;;0.97;;
21166;SDS011;10741;52.272;9.580;2023-03-14T07:32:49;2.50;;;1.20;;
21166;SDS011;10741;52.272;9.580;2023-03-14T07:35:14;1.47;;;0.80;;
21166;SDS011;10741;52.272;9.580;2023-03-14T07:37:40;1.43;;;0.80;;
21166;SDS011;10741;52.272;9.580;2023-03-14T07:40:06;1.90;;;0.97;;
21166;SDS011;10741;52.272;9.580;2023-03-14T07:42:32;2.30;;;0.87;;
21166;SDS011;10741;52.272;9.580;2023-03-14T07:44:57;0.77;;;0.77;;
21166;SDS011;10741;52.272;9.580;2023-03-14T07:47:23;1.27;;;0.83;;
21166;SDS011;10741;52.272;9.580;2023-03-14T07:49:49;1.13;;;0.70;;
21166;SDS011;10741;52.272;9.580;2023-03-14T07:52:15;2.10;;;1.37;;
21166;SDS011;10741;52.272;9.580;2023-03-14T07:54:41;0.93;;;0.60;;
21166;SDS011;10741;52.272;9.580;2023-03-14T07:57:07;1.57;;;1.40;;
21166;SDS011;10741;52.272;9.580;2023-03-14T07:59:32;2.30;;;1.50;;
21166;SDS011;10741;52.272;9.580;2023-03-14T08:01:58;1.43;;;1.10;;
21166;SDS011;10741;52.272;9.580;2023-03-14T08:04:24;1.73;;;1.30;;
21166;SDS011;10741;52.272;9.580;2023-03-14T08:06:49;1.07;;;0.80;;
21166;SDS011;10741;52.272;9.580;2023-03-14T08:09:15;2.30;;;1.37;;
21166;SDS011;10741;52.272;9.580;2023-03-14T08:11:41;1.63;;;1.00;;
21166;SDS011;10741;52.272;9.580;2023-03-14T08:14:06;1.87;;;1.00;;
21166;SDS011;10741;52.272;9.580;2023-03-14T08:16:32;1.00;;;0.90;;
21166;SDS011;10741;52.272;9.580;2023-03-14T08:18:58;1.40;;;1.30;;
21166;SDS011;10741;52.272;9.580;2023-03-14T08:21:24;2.00;;;1.90;;
21166;SDS011;10741;52.272;9.580;2023-03-14T08:23:49;1.80;;;1.70;;
21166;SDS011;10741;52.272;9.580;2023-03-14T08:26:15;1.03;;;0.90;;
21166;SDS011;10741;52.272;9.580;2023-03-14T08:28:41;0.80;;;0.80;;
21166;SDS011;10741;52.272;9.580;2023-03-14T08:31:06;1.40;;;0.97;;
21166;SDS011;10741;52.272;9.580;2023-03-14T08:33:32;1.53;;;0.50;;
21166;SDS011;10741;52.272;9.580;2023-03-14T08:35:59;0.97;;;0.60;;
21166;SDS011;10741;52.272;9.580;2023-03-14T08:38:26;1.73;;;1.13;;
21166;SDS011;10741;52.272;9.580;2023-03-14T08:40:55;0.80;;;0.50;;
21166;SDS011;10741;52.272;9.580;2023-03-14T08:43:22;1.47;;;0.60;;
21166;SDS011;10741;52.272;9.580;2023-03-14T08:45:48;1.37;;;0.70;;
21166;SDS011;10741;52.272;9.580;2023-03-14T08:48:14;3.40;;;0.60;;
21166;SDS011;10741;52.272;9.580;2023-03-14T08:50:39;2.20;;;0.63;;
21166;SDS011;10741;52.272;9.580;2023-03-14T08:53:05;3.43;;;0.90;;
21166;SDS011;10741;52.272;9.580;2023-03-14T08:55:31;1.37;;;0.90;;
21166;SDS011;10741;52.272;9.580;2023-03-14T08:57:57;1.30;;;0.40;;
21166;SDS011;10741;52.272;9.580;2023-03-14T09:00:22;2.10;;;0.87;;
21166;SDS011;10741;52.272;9.580;2023-03-14T09:02:48;1.07;;;0.77;;
21166;SDS011;10741;52.272;9.580;2023-03-14T09:05:15;1.17;;;0.80;;
21166;SDS011;10741;52.272;9.580;2023-03-14T09:07:41;1.60;;;1.00;;
21166;SDS011;10741;52.272;9.580;2023-03-14T09:10:07;1.10;;;0.90;;
21166;SDS011;10741;52.272;9.580;2023-03-14T09:12:33;2.03;;;1.00;;
21166;SDS011;10741;52.272;9.580;2023-03-14T09:14:59;2.03;;;0.90;;
21166;SDS011;10741;52.272;9.580;2023-03-14T09:17:25;2.57;;;0.80;;
21166;SDS011;10741;52.272;9.580;2023-03-14T09:19:51;2.73;;;1.17;;
21166;SDS011;10741;52.272;9.580;2023-03-14T09:22:17;1.17;;;1.00;;
21166;SDS011;10741;52.272;9.580;2023-03-14T09:24:42;0.90;;;0.70;;
21166;SDS011;10741;52.272;9.580;2023-03-14T09:27:08;2.17;;;1.13;;
21166;SDS011;10741;52.272;9.580;2023-03-14T09:29:34;1.63;;;0.83;;
21166;SDS011;10741;52.272;9.580;2023-03-14T09:32:00;1.70;;;0.97;;
21166;SDS011;10741;52.272;9.580;2023-03-14T09:34:26;0.90;;;0.90;;
21166;SDS011;10741;52.272;9.580;2023-03-14T09:36:52;0.90;;;0.80;;
21166;SDS011;10741;52.272;9.580;2023-03-14T09:39:18;0.80;;;0.60;;
21166;SDS011;10741;52.272;9.580;2023-03-14T09:41:44;0.83;;;0.83;;
21166;SDS011;10741;52.272;9.580;2023-03-14T09:46:45;1.50;;;0.80;;
21166;SDS011;10741;52.272;9.580;2023-03-14T09:49:21;2.00;;;0.90;;
21166;SDS011;10741;52.272;9.580;2023-03-14T09:51:53;0.70;;;0.70;;
21166;SDS011;10741;52.272;9.580;2023-03-14T09:54:26;1.27;;;0.77;;
21166;SDS011;10741;52.272;9.580;2023-03-14T09:57:03;0.60;;;0.60;;
21166;SDS011;10741;52.272;9.580;2023-03-14T09:59:30;1.50;;;0.80;;
21166;SDS011;10741;52.272;9.580;2023-03-14T10:02:04;1.17;;;0.60;;
21166;SDS011;10741;52.272;9.580;2023-03-14T10:04:39;1.07;;;0.60;;
21166;SDS011;10741;52.272;9.580;2023-03-14T10:07:19;1.10;;;0.73;;
21166;SDS011;10741;52.272;9.580;2023-03-14T10:09:50;1.13;;;0.60;;
21166;SDS011;10741;52.272;9.580;2023-03-14T10:12:17;1.20;;;0.70;;
21166;SDS011;10741;52.272;9.580;2023-03-14T10:14:47;0.80;;;0.80;;
21166;SDS011;10741;52.272;9.580;2023-03-14T10:17:15;1.37;;;0.90;;
21166;SDS011;10741;52.272;9.580;2023-03-14T10:19:59;1.40;;;0.63;;
21166;SDS011;10741;52.272;9.580;2023-03-14T10:22:26;0.70;;;0.70;;
21166;SDS011;10741;52.272;9.580;2023-03-14T10:24:57;0.97;;;0.70;;
21166;SDS011;10741;52.272;9.580;2023-03-14T10:27:31;0.50;;;0.50;;
21166;SDS011;10741;52.272;9.580;2023-03-14T10:29:59;0.80;;;0.70;;
21166;SDS011;10741;52.272;9.580;2023-03-14T10:32:37;0.70;;;0.67;;
21166;SDS011;10741;52.272;9.580;2023-03-14T10:35:11;1.10;;;0.70;;
21166;SDS011;10741;52.272;9.580;2023-03-14T10:37:52;1.00;;;0.90;;
21166;SDS011;10741;52.272;9.580;2023-03-14T10:40:27;1.10;;;1.00;;
21166;SDS011;10741;52.272;9.580;2023-03-14T10:42:58;1.00;;;1.00;;
21166;SDS011;10741;52.272;9.580;2023-03-14T10:45:30;1.23;;;1.13;;
21166;SDS011;10741;52.272;9.580;2023-03-14T10:50:56;1.10;;;1.10;;
21166;SDS011;10741;52.272;9.580;2023-03-14T10:53:29;1.10;;;1.07;;
21166;SDS011;10741;52.272;9.580;2023-03-14T10:56:13;1.03;;;0.93;;
21166;SDS011;10741;52.272;9.580;2023-03-14T10:58:41;1.10;;;1.00;;
21166;SDS011;10741;52.272;9.580;2023-03-14T11:06:56;0.80;;;0.80;;
21166;SDS011;10741;52.272;9.580;2023-03-14T11:22:46;2.43;;;1.00;;
21166;SDS011;10741;52.272;9.580;2023-03-14T11:25:26;4.57;;;0.87;;
21166;SDS011;10741;52.272;9.580;2023-03-14T11:28:10;2.47;;;0.57;;
21166;SDS011;10741;52.272;9.580;2023-03-14T11:31:29;0.90;;;0.57;;
21166;SDS011;10741;52.272;9.580;2023-03-14T11:34:17;0.50;;;0.50;;
21166;SDS011;10741;52.272;9.580;2023-03-14T11:39:22;2.53;;;0.87;;
21166;SDS011;10741;52.272;9.580;2023-03-14T11:41:51;1.77;;;0.90;;
21166;SDS011;10741;52.272;9.580;2023-03-14T11:44:32;0.70;;;0.60;;
21166;SDS011;10741;52.272;9.580;2023-03-14T11:47:26;0.93;;;0.90;;
21166;SDS011;10741;52.272;9.580;2023-03-14T11:50:02;1.77;;;0.90;;
21166;SDS011;10741;52.272;9.580;2023-03-14T11:52:31;0.70;;;0.70;;
21166;SDS011;10741;52.272;9.580;2023-03-14T11:57:26;1.80;;;0.90;;
21166;SDS011;10741;52.272;9.580;2023-03-14T12:10:44;0.80;;;0.80;;
21166;SDS011;10741;52.272;9.580;2023-03-14T12:13:16;0.90;;;0.90;;
21166;SDS011;10741;52.272;9.580;2023-03-14T12:15:49;1.33;;;0.80;;
21166;SDS011;10741;52.272;9.580;2023-03-14T12:21:09;1.03;;;0.93;;
21166;SDS011;10741;52.272;9.580;2023-03-14T12:23:53;3.07;;;0.60;;
21166;SDS011;10741;52.272;9.580;2023-03-14T12:26:43;1.90;;;0.80;;
21166;SDS011;10741;52.272;9.580;2023-03-14T12:29:16;1.33;;;0.73;;
21166;SDS011;10741;52.272;9.580;2023-03-14T12:31:44;1.83;;;0.90;;
21166;SDS011;10741;52.272;9.580;2023-03-14T12:44:53;1.57;;;1.10;;
21166;SDS011;10741;52.272;9.580;2023-03-14T12:48:03;3.13;;;1.10;;
21166;SDS011;10741;52.272;9.580;2023-03-14T12:50:46;3.50;;;1.70;;
21166;SDS011;10741;52.272;9.580;2023-03-14T13:02:29;3.60;;;1.73;;
21166;SDS011;10741;52.272;9.580;2023-03-14T13:05:09;3.43;;;1.73;;
21166;SDS011;10741;52.272;9.580;2023-03-14T13:10:24;4.40;;;1.57;;
21166;SDS011;10741;52.272;9.580;2023-03-14T13:12:51;3.83;;;1.60;;
21166;SDS011;10741;52.272;9.580;2023-03-14T13:20:54;4.87;;;1.50;;
21166;SDS011;10741;52.272;9.580;2023-03-14T13:23:25;6.30;;;1.40;;
21166;SDS011;10741;52.272;9.580;2023-03-14T13:25:52;3.87;;;1.50;;
21166;SDS011;10741;52.272;9.580;2023-03-14T13:28:19;4.53;;;1.50;;
21166;SDS011;10741;52.272;9.580;2023-03-14T13:30:47;7.37;;;1.57;;
21166;SDS011;10741;52.272;9.580;2023-03-14T13:33:16;3.60;;;1.37;;
21166;SDS011;10741;52.272;9.580;2023-03-14T13:35:45;2.90;;;1.00;;
21166;SDS011;10741;52.272;9.580;2023-03-14T13:38:13;7.80;;;1.70;;
21166;SDS011;10741;52.272;9.580;2023-03-14T13:40:45;3.37;;;1.30;;
21166;SDS011;10741;52.272;9.580;2023-03-14T13:46:06;5.10;;;1.90;;
21166;SDS011;10741;52.272;9.580;2023-03-14T13:48:43;7.20;;;1.67;;
21166;SDS011;10741;52.272;9.580;2023-03-14T13:51:13;5.60;;;1.70;;
21166;SDS011;10741;52.272;9.580;2023-03-14T13:53:45;6.97;;;1.60;;
21166;SDS011;10741;52.272;9.580;2023-03-14T13:56:19;4.73;;;1.60;;
21166;SDS011;10741;52.272;9.580;2023-03-14T13:58:46;10.33;;;2.13;;
21166;SDS011;10741;52.272;9.580;2023-03-14T14:03:39;6.23;;;1.80;;
21166;SDS011;10741;52.272;9.580;2023-03-14T14:06:18;8.67;;;2.30;;
21166;SDS011;10741;52.272;9.580;2023-03-14T14:08:53;15.17;;;2.50;;
21166;SDS011;10741;52.272;9.580;2023-03-14T14:14:01;12.73;;;1.97;;
21166;SDS011;10741;52.272;9.580;2023-03-14T14:16:28;7.33;;;2.20;;
21166;SDS011;10741;52.272;9.580;2023-03-14T14:18:54;7.40;;;1.90;;
21166;SDS011;10741;52.272;9.580;2023-03-14T14:21:22;7.37;;;1.67;;
21166;SDS011;10741;52.272;9.580;2023-03-14T14:23:48;11.87;;;2.00;;
21166;SDS011;10741;52.272;9.580;2023-03-14T14:26:16;5.47;;;1.50;;
21166;SDS011;10741;52.272;9.580;2023-03-14T14:28:43;7.17;;;1.70;;
21166;SDS011;10741;52.272;9.580;2023-03-14T14:33:45;9.23;;;1.90;;
21166;SDS011;10741;52.272;9.580;2023-03-14T14:41:42;11.03;;;1.97;;
21166;SDS011;10741;52.272;9.580;2023-03-14T14:44:12;9.73;;;1.97;;
21166;SDS011;10741;52.272;9.580;2023-03-14T14:46:41;12.93;;;2.00;;
21166;SDS011;10741;52.272;9.580;2023-03-14T14:49:13;10.17;;;2.10;;
21166;SDS011;10741;52.272;9.580;2023-03-14T14:51:49;13.90;;;2.27;;
21166;SDS011;10741;52.272;9.580;2023-03-14T14:54:20;11.53;;;1.90;;
21166;SDS011;10741;52.272;9.580;2023-03-14T14:57:15;14.17;;;2.73;;
21166;SDS011;10741;52.272;9.580;2023-03-14T14:59:48;11.10;;;2.17;;
21166;SDS011;10741;52.272;9.580;2023-03-14T15:05:19;10.67;;;2.00;;
21166;SDS011;10741;52.272;9.580;2023-03-14T15:07:47;12.00;;;1.90;;
21166;SDS011;10741;52.272;9.580;2023-03-14T15:10:13;9.17;;;2.20;;
21166;SDS011;10741;52.272;9.580;2023-03-14T15:12:41;8.87;;;1.93;;
21166;SDS011;10741;52.272;9.580;2023-03-14T15:15:07;7.47;;;1.53;;
21166;SDS011;10741;52.272;9.580;2023-03-14T15:17:34;12.17;;;2.00;;
21166;SDS011;10741;52.272;9.580;2023-03-14T15:20:01;10.50;;;1.60;;
21166;SDS011;10741;52.272;9.580;2023-03-14T15:22:31;13.90;;;2.13;;
21166;SDS011;10741;52.272;9.580;2023-03-14T15:24:57;12.90;;;1.80;;
21166;SDS011;10741;52.272;9.580;2023-03-14T15:27:23;8.47;;;1.67;;
21166;SDS011;10741;52.272;9.580;2023-03-14T15:29:48;10.03;;;1.83;;
21166;SDS011;10741;52.272;9.580;2023-03-14T15:32:15;8.43;;;1.50;;
21166;SDS011;10741;52.272;9.580;2023-03-14T15:34:43;6.73;;;1.20;;
21166;SDS011;10741;52.272;9.580;2023-03-14T15:37:12;14.23;;;1.93;;
21166;SDS011;10741;52.272;9.580;2023-03-14T15:39:40;13.23;;;1.90;;
21166;SDS011;10741;52.272;9.580;2023-03-14T15:42:09;9.07;;;1.53;;
21166;SDS011;10741;52.272;9.580;2023-03-14T15:44:35;7.23;;;1.67;;
21166;SDS011;10741;52.272;9.580;2023-03-14T15:47:01;6.47;;;1.20;;
21166;SDS011;10741;52.272;9.580;2023-03-14T15:49:29;6.73;;;1.60;;
21166;SDS011;10741;52.272;9.580;2023-03-14T15:51:55;8.37;;;1.57;;
21166;SDS011;10741;52.272;9.580;2023-03-14T15:54:21;7.10;;;1.30;;
21166;SDS011;10741;52.272;9.580;2023-03-14T15:56:47;8.17;;;1.47;;
21166;SDS011;10741;52.272;9.580;2023-03-14T15:59:13;9.70;;;1.47;;
21166;SDS011;10741;52.272;9.580;2023-03-14T16:01:39;5.67;;;1.47;;
21166;SDS011;10741;52.272;9.580;2023-03-14T16:04:04;7.93;;;1.80;;
21166;SDS011;10741;52.272;9.580;2023-03-14T16:06:30;9.03;;;1.67;;
21166;SDS011;10741;52.272;9.580;2023-03-14T16:08:56;8.83;;;1.60;;
21166;SDS011;10741;52.272;9.580;2023-03-14T16:11:22;5.43;;;1.30;;
21166;SDS011;10741;52.272;9.580;2023-03-14T16:13:48;7.57;;;1.70;;
21166;SDS011;10741;52.272;9.580;2023-03-14T16:16:13;5.07;;;1.50;;
21166;SDS011;10741;52.272;9.580;2023-03-14T16:18:39;13.90;;;2.00;;
21166;SDS011;10741;52.272;9.580;2023-03-14T16:21:06;6.30;;;1.47;;
21166;SDS011;10741;52.272;9.580;2023-03-14T16:23:35;5.97;;;1.50;;
21166;SDS011;10741;52.272;9.580;2023-03-14T16:26:05;10.13;;;1.50;;
21166;SDS011;10741;52.272;9.580;2023-03-14T16:28:34;7.40;;;1.80;;
21166;SDS011;10741;52.272;9.580;2023-03-14T16:31:04;8.57;;;1.60;;
21166;SDS011;10741;52.272;9.580;2023-03-14T16:33:32;10.20;;;1.80;;
21166;SDS011;10741;52.272;9.580;2023-03-14T16:35:59;5.77;;;1.40;;